sensor_id;sensor_type;location;lat;lon;timestamp;temperature;humidity
32534;DHT22;18973;48.580;8.912;2024-01-30T00:01:52;6.00;99.90
32534;DHT22;18973;48.580;8.912;2024-01-30T00:04:18;6.10;99.90
32534;DHT22;18973;48.580;8.912;2024-01-30T00:06:44;6.20;99.90
32534;DHT22;18973;48.580;8.912;2024-01-30T00:09:10;6.20;99.90
32534;DHT22;18973;48.580;8.912;2024-01-30T00:11:39;6.00;99.90
32534;DHT22;18973;48.580;8.912;2024-01-30T00:14:05;5.80;99.90
32534;DHT22;18973;48.580;8.912;2024-01-30T00:16:31;5.70;99.90
32534;DHT22;18973;48.580;8.912;2024-01-30T00:18:57;5.80;99.90
32534;DHT22;18973;48.580;8.912;2024-01-30T00:21:23;5.90;99.90
32534;DHT22;18973;48.580;8.912;2024-01-30T00:23:49;6.00;99.90
32534;DHT22;18973;48.580;8.912;2024-01-30T00:26:15;6.10;99.90
32534;DHT22;18973;48.580;8.912;2024-01-30T00:28:41;6.00;99.90
32534;DHT22;18973;48.580;8.912;2024-01-30T00:31:08;5.90;99.90
32534;DHT22;18973;48.580;8.912;2024-01-30T00:33:34;5.70;99.90
32534;DHT22;18973;48.580;8.912;2024-01-30T00:36:00;5.60;99.90
32534;DHT22;18973;48.580;8.912;2024-01-30T00:38:25;5.70;99.90
32534;DHT22;18973;48.580;8.912;2024-01-30T00:40:51;5.70;99.90
32534;DHT22;18973;48.580;8.912;2024-01-30T00:43:16;5.60;99.90
32534;DHT22;18973;48.580;8.912;2024-01-30T00:45:45;5.50;99.90
32534;DHT22;18973;48.580;8.912;2024-01-30T00:48:11;5.60;99.90
32534;DHT22;18973;48.580;8.912;2024-01-30T00:50:36;5.40;99.90
32534;DHT22;18973;48.580;8.912;2024-01-30T00:53:02;5.50;99.90
32534;DHT22;18973;48.580;8.912;2024-01-30T00:55:28;5.30;99.90
32534;DHT22;18973;48.580;8.912;2024-01-30T00:57:53;5.20;99.90
32534;DHT22;18973;48.580;8.912;2024-01-30T01:00:19;5.20;99.90
32534;DHT22;18973;48.580;8.912;2024-01-30T01:02:46;5.20;99.90
32534;DHT22;18973;48.580;8.912;2024-01-30T01:05:12;5.10;99.90
32534;DHT22;18973;48.580;8.912;2024-01-30T01:07:37;5.10;99.90
32534;DHT22;18973;48.580;8.912;2024-01-30T01:10:03;5.10;99.90
32534;DHT22;18973;48.580;8.912;2024-01-30T01:12:29;5.10;99.90
32534;DHT22;18973;48.580;8.912;2024-01-30T01:14:55;5.10;99.90
32534;DHT22;18973;48.580;8.912;2024-01-30T01:17:21;5.10;99.90
32534;DHT22;18973;48.580;8.912;2024-01-30T01:19:46;5.00;99.90
32534;DHT22;18973;48.580;8.912;2024-01-30T01:22:12;5.00;99.90
32534;DHT22;18973;48.580;8.912;2024-01-30T01:24:38;5.00;99.90
32534;DHT22;18973;48.580;8.912;2024-01-30T01:27:05;5.10;99.90
32534;DHT22;18973;48.580;8.912;2024-01-30T01:29:31;5.10;99.90
32534;DHT22;18973;48.580;8.912;2024-01-30T01:31:58;5.20;99.90
32534;DHT22;18973;48.580;8.912;2024-01-30T01:34:24;5.20;99.90
32534;DHT22;18973;48.580;8.912;2024-01-30T01:36:50;5.10;99.90
32534;DHT22;18973;48.580;8.912;2024-01-30T01:39:16;5.10;99.90
32534;DHT22;18973;48.580;8.912;2024-01-30T01:41:42;5.10;99.90
32534;DHT22;18973;48.580;8.912;2024-01-30T01:44:08;5.20;99.90
32534;DHT22;18973;48.580;8.912;2024-01-30T01:46:34;5.20;99.90
32534;DHT22;18973;48.580;8.912;2024-01-30T01:49:02;5.20;99.90
32534;DHT22;18973;48.580;8.912;2024-01-30T01:51:29;5.20;99.90
32534;DHT22;18973;48.580;8.912;2024-01-30T01:53:57;5.10;99.90
32534;DHT22;18973;48.580;8.912;2024-01-30T01:56:24;5.20;99.90
32534;DHT22;18973;48.580;8.912;2024-01-30T01:58:55;5.20;99.90
32534;DHT22;18973;48.580;8.912;2024-01-30T02:01:21;5.30;99.90
32534;DHT22;18973;48.580;8.912;2024-01-30T02:03:48;5.30;99.90
32534;DHT22;18973;48.580;8.912;2024-01-30T02:06:14;5.30;99.90
32534;DHT22;18973;48.580;8.912;2024-01-30T02:08:42;5.20;99.90
32534;DHT22;18973;48.580;8.912;2024-01-30T02:11:08;5.20;99.90
32534;DHT22;18973;48.580;8.912;2024-01-30T02:13:35;5.20;99.90
32534;DHT22;18973;48.580;8.912;2024-01-30T02:16:01;5.10;99.90
32534;DHT22;18973;48.580;8.912;2024-01-30T02:18:27;5.10;99.90
32534;DHT22;18973;48.580;8.912;2024-01-30T02:20:54;5.10;99.90
32534;DHT22;18973;48.580;8.912;2024-01-30T02:23:23;5.10;99.90
32534;DHT22;18973;48.580;8.912;2024-01-30T02:25:50;5.10;99.90
32534;DHT22;18973;48.580;8.912;2024-01-30T02:28:18;5.00;99.90
32534;DHT22;18973;48.580;8.912;2024-01-30T02:30:44;5.00;99.90
32534;DHT22;18973;48.580;8.912;2024-01-30T02:33:10;4.90;99.90
32534;DHT22;18973;48.580;8.912;2024-01-30T02:35:36;4.90;99.90
32534;DHT22;18973;48.580;8.912;2024-01-30T02:38:02;4.90;99.90
32534;DHT22;18973;48.580;8.912;2024-01-30T02:40:27;4.80;99.90
32534;DHT22;18973;48.580;8.912;2024-01-30T02:42:53;5.00;99.90
32534;DHT22;18973;48.580;8.912;2024-01-30T02:45:19;5.10;99.90
32534;DHT22;18973;48.580;8.912;2024-01-30T02:47:45;5.00;99.90
32534;DHT22;18973;48.580;8.912;2024-01-30T02:50:11;5.00;99.90
32534;DHT22;18973;48.580;8.912;2024-01-30T02:52:37;4.80;99.90
32534;DHT22;18973;48.580;8.912;2024-01-30T02:55:03;4.70;99.90
32534;DHT22;18973;48.580;8.912;2024-01-30T02:57:29;4.70;99.90
32534;DHT22;18973;48.580;8.912;2024-01-30T02:59:54;4.50;99.90
32534;DHT22;18973;48.580;8.912;2024-01-30T03:02:20;4.60;99.90
32534;DHT22;18973;48.580;8.912;2024-01-30T03:04:46;4.60;99.90
32534;DHT22;18973;48.580;8.912;2024-01-30T03:07:12;4.50;99.90
32534;DHT22;18973;48.580;8.912;2024-01-30T03:09:38;4.50;99.90
32534;DHT22;18973;48.580;8.912;2024-01-30T03:12:05;4.60;99.90
32534;DHT22;18973;48.580;8.912;2024-01-30T03:14:31;4.50;99.90
32534;DHT22;18973;48.580;8.912;2024-01-30T03:16:57;4.50;99.90
32534;DHT22;18973;48.580;8.912;2024-01-30T03:19:23;4.30;99.90
32534;DHT22;18973;48.580;8.912;2024-01-30T03:21:49;4.10;99.90
32534;DHT22;18973;48.580;8.912;2024-01-30T03:24:15;3.90;99.90
32534;DHT22;18973;48.580;8.912;2024-01-30T03:26:40;4.00;99.90
32534;DHT22;18973;48.580;8.912;2024-01-30T03:29:06;4.00;99.90
32534;DHT22;18973;48.580;8.912;2024-01-30T03:31:32;4.20;99.90
32534;DHT22;18973;48.580;8.912;2024-01-30T03:33:57;4.20;99.90
32534;DHT22;18973;48.580;8.912;2024-01-30T03:36:23;4.20;99.90
32534;DHT22;18973;48.580;8.912;2024-01-30T03:38:49;4.10;99.90
32534;DHT22;18973;48.580;8.912;2024-01-30T03:41:15;4.10;99.90
32534;DHT22;18973;48.580;8.912;2024-01-30T03:43:40;4.10;99.90
32534;DHT22;18973;48.580;8.912;2024-01-30T03:46:06;3.80;99.90
32534;DHT22;18973;48.580;8.912;2024-01-30T03:48:32;3.90;99.90
32534;DHT22;18973;48.580;8.912;2024-01-30T03:50:58;4.00;99.90
32534;DHT22;18973;48.580;8.912;2024-01-30T03:53:24;4.10;99.90
32534;DHT22;18973;48.580;8.912;2024-01-30T03:55:49;4.00;99.90
32534;DHT22;18973;48.580;8.912;2024-01-30T03:58:15;4.00;99.90
32534;DHT22;18973;48.580;8.912;2024-01-30T04:00:41;3.90;99.90
32534;DHT22;18973;48.580;8.912;2024-01-30T04:03:07;3.80;99.90
32534;DHT22;18973;48.580;8.912;2024-01-30T04:05:33;3.80;99.90
32534;DHT22;18973;48.580;8.912;2024-01-30T04:07:59;3.50;99.90
32534;DHT22;18973;48.580;8.912;2024-01-30T04:10:25;3.50;99.90
32534;DHT22;18973;48.580;8.912;2024-01-30T04:12:51;3.60;99.90
32534;DHT22;18973;48.580;8.912;2024-01-30T04:15:17;3.60;99.90
32534;DHT22;18973;48.580;8.912;2024-01-30T04:17:43;3.80;99.90
32534;DHT22;18973;48.580;8.912;2024-01-30T04:20:16;3.70;99.90
32534;DHT22;18973;48.580;8.912;2024-01-30T04:22:43;3.70;99.90
32534;DHT22;18973;48.580;8.912;2024-01-30T04:25:10;3.60;99.90
32534;DHT22;18973;48.580;8.912;2024-01-30T04:27:35;3.60;99.90
32534;DHT22;18973;48.580;8.912;2024-01-30T04:30:01;3.60;99.90
32534;DHT22;18973;48.580;8.912;2024-01-30T04:32:27;3.60;99.90
32534;DHT22;18973;48.580;8.912;2024-01-30T04:34:52;3.60;99.90
32534;DHT22;18973;48.580;8.912;2024-01-30T04:37:18;3.70;99.90
32534;DHT22;18973;48.580;8.912;2024-01-30T04:39:44;3.60;99.90
32534;DHT22;18973;48.580;8.912;2024-01-30T04:42:09;3.60;99.90
32534;DHT22;18973;48.580;8.912;2024-01-30T04:44:35;3.50;99.90
32534;DHT22;18973;48.580;8.912;2024-01-30T04:47:01;3.40;99.90
32534;DHT22;18973;48.580;8.912;2024-01-30T04:49:27;3.40;99.90
32534;DHT22;18973;48.580;8.912;2024-01-30T04:51:54;3.50;99.90
32534;DHT22;18973;48.580;8.912;2024-01-30T04:54:21;3.50;99.90
32534;DHT22;18973;48.580;8.912;2024-01-30T04:56:46;3.80;99.90
32534;DHT22;18973;48.580;8.912;2024-01-30T04:59:12;3.90;99.90
32534;DHT22;18973;48.580;8.912;2024-01-30T05:01:37;3.90;99.90
32534;DHT22;18973;48.580;8.912;2024-01-30T05:04:03;3.80;99.90
32534;DHT22;18973;48.580;8.912;2024-01-30T05:06:29;3.70;99.90
32534;DHT22;18973;48.580;8.912;2024-01-30T05:08:55;3.80;99.90
32534;DHT22;18973;48.580;8.912;2024-01-30T05:11:21;4.00;99.90
32534;DHT22;18973;48.580;8.912;2024-01-30T05:13:47;3.80;99.90
32534;DHT22;18973;48.580;8.912;2024-01-30T05:16:13;3.60;99.90
32534;DHT22;18973;48.580;8.912;2024-01-30T05:18:38;3.70;99.90
32534;DHT22;18973;48.580;8.912;2024-01-30T05:21:05;3.80;99.90
32534;DHT22;18973;48.580;8.912;2024-01-30T05:23:31;3.70;99.90
32534;DHT22;18973;48.580;8.912;2024-01-30T05:25:57;3.60;99.90
32534;DHT22;18973;48.580;8.912;2024-01-30T05:28:22;3.60;99.90
32534;DHT22;18973;48.580;8.912;2024-01-30T05:30:48;3.60;99.90
32534;DHT22;18973;48.580;8.912;2024-01-30T05:33:14;3.50;99.90
32534;DHT22;18973;48.580;8.912;2024-01-30T05:35:40;3.60;99.90
32534;DHT22;18973;48.580;8.912;2024-01-30T05:38:05;3.60;99.90
32534;DHT22;18973;48.580;8.912;2024-01-30T05:40:31;3.50;99.90
32534;DHT22;18973;48.580;8.912;2024-01-30T05:42:57;3.60;99.90
32534;DHT22;18973;48.580;8.912;2024-01-30T05:45:27;3.60;99.90
32534;DHT22;18973;48.580;8.912;2024-01-30T05:47:53;3.30;99.90
32534;DHT22;18973;48.580;8.912;2024-01-30T05:50:19;3.10;99.90
32534;DHT22;18973;48.580;8.912;2024-01-30T05:52:45;3.20;99.90
32534;DHT22;18973;48.580;8.912;2024-01-30T05:55:11;3.30;99.90
32534;DHT22;18973;48.580;8.912;2024-01-30T05:57:38;3.20;99.90
32534;DHT22;18973;48.580;8.912;2024-01-30T06:00:05;3.10;99.90
32534;DHT22;18973;48.580;8.912;2024-01-30T06:02:31;3.10;99.90
32534;DHT22;18973;48.580;8.912;2024-01-30T06:04:57;3.10;99.90
32534;DHT22;18973;48.580;8.912;2024-01-30T06:07:22;3.10;99.90
32534;DHT22;18973;48.580;8.912;2024-01-30T06:09:48;3.00;99.90
32534;DHT22;18973;48.580;8.912;2024-01-30T06:12:14;2.90;99.90
32534;DHT22;18973;48.580;8.912;2024-01-30T06:14:39;2.90;99.90
32534;DHT22;18973;48.580;8.912;2024-01-30T06:17:08;2.80;99.90
32534;DHT22;18973;48.580;8.912;2024-01-30T06:19:33;2.80;99.90
32534;DHT22;18973;48.580;8.912;2024-01-30T06:21:59;2.90;99.90
32534;DHT22;18973;48.580;8.912;2024-01-30T06:24:25;2.90;99.90
32534;DHT22;18973;48.580;8.912;2024-01-30T06:26:50;2.90;99.90
32534;DHT22;18973;48.580;8.912;2024-01-30T06:29:16;3.00;99.90
32534;DHT22;18973;48.580;8.912;2024-01-30T06:31:42;2.90;99.90
32534;DHT22;18973;48.580;8.912;2024-01-30T06:34:11;2.90;99.90
32534;DHT22;18973;48.580;8.912;2024-01-30T06:36:37;2.70;99.90
32534;DHT22;18973;48.580;8.912;2024-01-30T06:39:03;2.80;99.90
32534;DHT22;18973;48.580;8.912;2024-01-30T06:41:29;2.60;99.90
32534;DHT22;18973;48.580;8.912;2024-01-30T06:43:56;2.60;99.90
32534;DHT22;18973;48.580;8.912;2024-01-30T06:46:21;2.80;99.90
32534;DHT22;18973;48.580;8.912;2024-01-30T06:48:47;2.80;99.90
32534;DHT22;18973;48.580;8.912;2024-01-30T06:51:13;2.80;99.90
32534;DHT22;18973;48.580;8.912;2024-01-30T06:53:39;2.70;99.90
32534;DHT22;18973;48.580;8.912;2024-01-30T06:56:05;2.70;99.90
32534;DHT22;18973;48.580;8.912;2024-01-30T06:58:30;2.80;99.90
32534;DHT22;18973;48.580;8.912;2024-01-30T07:00:59;2.80;99.90
32534;DHT22;18973;48.580;8.912;2024-01-30T07:03:25;2.90;99.90
32534;DHT22;18973;48.580;8.912;2024-01-30T07:05:50;3.00;99.90
32534;DHT22;18973;48.580;8.912;2024-01-30T07:08:17;3.20;99.90
32534;DHT22;18973;48.580;8.912;2024-01-30T07:10:45;3.20;99.90
32534;DHT22;18973;48.580;8.912;2024-01-30T07:13:11;3.20;99.90
32534;DHT22;18973;48.580;8.912;2024-01-30T07:15:37;3.20;99.90
32534;DHT22;18973;48.580;8.912;2024-01-30T07:18:04;3.10;99.90
32534;DHT22;18973;48.580;8.912;2024-01-30T07:20:30;3.10;99.90
32534;DHT22;18973;48.580;8.912;2024-01-30T07:22:58;3.20;99.90
32534;DHT22;18973;48.580;8.912;2024-01-30T07:25:24;3.40;99.90
32534;DHT22;18973;48.580;8.912;2024-01-30T07:27:53;3.50;99.90
32534;DHT22;18973;48.580;8.912;2024-01-30T07:30:19;3.60;99.90
32534;DHT22;18973;48.580;8.912;2024-01-30T07:32:46;3.60;99.90
32534;DHT22;18973;48.580;8.912;2024-01-30T07:35:12;3.70;99.90
32534;DHT22;18973;48.580;8.912;2024-01-30T07:37:38;3.70;99.90
32534;DHT22;18973;48.580;8.912;2024-01-30T07:40:04;3.80;99.90
32534;DHT22;18973;48.580;8.912;2024-01-30T07:42:30;3.90;99.90
32534;DHT22;18973;48.580;8.912;2024-01-30T07:44:56;3.90;99.90
32534;DHT22;18973;48.580;8.912;2024-01-30T07:47:21;4.00;99.90
32534;DHT22;18973;48.580;8.912;2024-01-30T07:49:47;4.00;99.90
32534;DHT22;18973;48.580;8.912;2024-01-30T07:52:13;4.00;99.90
32534;DHT22;18973;48.580;8.912;2024-01-30T07:54:39;4.30;99.90
32534;DHT22;18973;48.580;8.912;2024-01-30T07:57:04;4.60;99.90
32534;DHT22;18973;48.580;8.912;2024-01-30T07:59:30;4.90;99.90
32534;DHT22;18973;48.580;8.912;2024-01-30T08:01:56;5.00;99.90
32534;DHT22;18973;48.580;8.912;2024-01-30T08:04:21;4.90;99.90
32534;DHT22;18973;48.580;8.912;2024-01-30T08:06:47;4.80;99.90
32534;DHT22;18973;48.580;8.912;2024-01-30T08:09:13;5.20;99.90
32534;DHT22;18973;48.580;8.912;2024-01-30T08:11:38;5.50;99.90
32534;DHT22;18973;48.580;8.912;2024-01-30T08:14:04;5.80;99.90
32534;DHT22;18973;48.580;8.912;2024-01-30T08:16:30;6.10;99.90
32534;DHT22;18973;48.580;8.912;2024-01-30T08:18:55;6.40;99.90
32534;DHT22;18973;48.580;8.912;2024-01-30T08:21:23;6.50;99.90
32534;DHT22;18973;48.580;8.912;2024-01-30T08:23:48;6.80;99.90
32534;DHT22;18973;48.580;8.912;2024-01-30T08:26:14;7.10;99.90
32534;DHT22;18973;48.580;8.912;2024-01-30T08:28:40;7.20;99.90
32534;DHT22;18973;48.580;8.912;2024-01-30T08:31:05;6.70;99.90
32534;DHT22;18973;48.580;8.912;2024-01-30T08:33:31;6.00;99.90
32534;DHT22;18973;48.580;8.912;2024-01-30T08:35:57;5.90;99.90
32534;DHT22;18973;48.580;8.912;2024-01-30T08:38:23;5.90;99.90
32534;DHT22;18973;48.580;8.912;2024-01-30T08:40:48;6.00;99.90
32534;DHT22;18973;48.580;8.912;2024-01-30T08:43:14;5.90;99.90
32534;DHT22;18973;48.580;8.912;2024-01-30T08:45:40;5.90;99.90
32534;DHT22;18973;48.580;8.912;2024-01-30T08:48:07;5.80;99.90
32534;DHT22;18973;48.580;8.912;2024-01-30T08:50:33;5.70;99.90
32534;DHT22;18973;48.580;8.912;2024-01-30T08:53:00;5.70;99.90
32534;DHT22;18973;48.580;8.912;2024-01-30T08:55:25;5.60;99.90
32534;DHT22;18973;48.580;8.912;2024-01-30T08:57:51;5.90;99.90
32534;DHT22;18973;48.580;8.912;2024-01-30T09:00:17;6.10;99.90
32534;DHT22;18973;48.580;8.912;2024-01-30T09:02:43;6.50;99.90
32534;DHT22;18973;48.580;8.912;2024-01-30T09:05:09;6.60;99.90
32534;DHT22;18973;48.580;8.912;2024-01-30T09:07:35;6.50;99.90
32534;DHT22;18973;48.580;8.912;2024-01-30T09:10:00;6.60;99.90
32534;DHT22;18973;48.580;8.912;2024-01-30T09:12:26;6.80;99.90
32534;DHT22;18973;48.580;8.912;2024-01-30T09:14:52;7.20;99.90
32534;DHT22;18973;48.580;8.912;2024-01-30T09:17:18;7.20;99.90
32534;DHT22;18973;48.580;8.912;2024-01-30T09:19:45;7.40;99.90
32534;DHT22;18973;48.580;8.912;2024-01-30T09:22:10;7.50;99.90
32534;DHT22;18973;48.580;8.912;2024-01-30T09:24:36;7.60;99.90
32534;DHT22;18973;48.580;8.912;2024-01-30T09:27:02;7.80;99.90
32534;DHT22;18973;48.580;8.912;2024-01-30T09:29:27;7.90;99.90
32534;DHT22;18973;48.580;8.912;2024-01-30T09:31:54;7.80;99.90
32534;DHT22;18973;48.580;8.912;2024-01-30T09:34:19;7.80;99.90
32534;DHT22;18973;48.580;8.912;2024-01-30T09:36:45;8.00;99.90
32534;DHT22;18973;48.580;8.912;2024-01-30T09:39:11;8.10;99.90
32534;DHT22;18973;48.580;8.912;2024-01-30T09:41:45;8.00;99.90
32534;DHT22;18973;48.580;8.912;2024-01-30T09:44:13;8.00;99.90
32534;DHT22;18973;48.580;8.912;2024-01-30T09:46:41;7.80;99.90
32534;DHT22;18973;48.580;8.912;2024-01-30T09:49:08;7.60;99.90
32534;DHT22;18973;48.580;8.912;2024-01-30T09:51:34;7.80;99.90
32534;DHT22;18973;48.580;8.912;2024-01-30T09:54:02;7.90;99.90
32534;DHT22;18973;48.580;8.912;2024-01-30T09:56:28;8.10;99.90
32534;DHT22;18973;48.580;8.912;2024-01-30T09:58:54;8.00;99.90
32534;DHT22;18973;48.580;8.912;2024-01-30T10:01:20;8.20;99.90
32534;DHT22;18973;48.580;8.912;2024-01-30T10:03:46;8.40;99.90
32534;DHT22;18973;48.580;8.912;2024-01-30T10:06:12;8.40;99.90
32534;DHT22;18973;48.580;8.912;2024-01-30T10:08:37;8.40;99.90
32534;DHT22;18973;48.580;8.912;2024-01-30T10:11:03;8.50;99.90
32534;DHT22;18973;48.580;8.912;2024-01-30T10:13:29;8.60;99.90
32534;DHT22;18973;48.580;8.912;2024-01-30T10:15:55;8.70;99.90
32534;DHT22;18973;48.580;8.912;2024-01-30T10:18:22;8.80;99.90
32534;DHT22;18973;48.580;8.912;2024-01-30T10:20:49;8.90;99.90
32534;DHT22;18973;48.580;8.912;2024-01-30T10:23:14;8.90;99.90
32534;DHT22;18973;48.580;8.912;2024-01-30T10:25:40;8.90;99.90
32534;DHT22;18973;48.580;8.912;2024-01-30T10:28:07;8.90;99.90
32534;DHT22;18973;48.580;8.912;2024-01-30T10:30:32;8.90;99.90
32534;DHT22;18973;48.580;8.912;2024-01-30T10:32:58;9.00;99.90
32534;DHT22;18973;48.580;8.912;2024-01-30T10:35:24;9.00;99.90
32534;DHT22;18973;48.580;8.912;2024-01-30T10:37:49;9.10;99.90
32534;DHT22;18973;48.580;8.912;2024-01-30T10:40:15;9.20;99.90
32534;DHT22;18973;48.580;8.912;2024-01-30T10:42:45;9.20;99.90
32534;DHT22;18973;48.580;8.912;2024-01-30T10:45:12;9.30;99.90
32534;DHT22;18973;48.580;8.912;2024-01-30T10:47:40;9.20;99.90
32534;DHT22;18973;48.580;8.912;2024-01-30T10:50:08;9.30;99.90
32534;DHT22;18973;48.580;8.912;2024-01-30T10:52:34;9.30;99.90
32534;DHT22;18973;48.580;8.912;2024-01-30T10:55:00;9.50;99.90
32534;DHT22;18973;48.580;8.912;2024-01-30T10:57:27;9.60;99.20
32534;DHT22;18973;48.580;8.912;2024-01-30T10:59:56;9.70;99.40
32534;DHT22;18973;48.580;8.912;2024-01-30T11:02:23;9.80;99.60
32534;DHT22;18973;48.580;8.912;2024-01-30T11:04:50;10.00;99.90
32534;DHT22;18973;48.580;8.912;2024-01-30T11:07:25;10.10;98.90
32534;DHT22;18973;48.580;8.912;2024-01-30T11:10:09;9.90;99.00
32534;DHT22;18973;48.580;8.912;2024-01-30T11:12:39;9.90;99.20
32534;DHT22;18973;48.580;8.912;2024-01-30T11:15:10;10.00;98.90
32534;DHT22;18973;48.580;8.912;2024-01-30T11:17:53;10.10;99.90
32534;DHT22;18973;48.580;8.912;2024-01-30T11:20:27;10.20;99.30
32534;DHT22;18973;48.580;8.912;2024-01-30T11:22:55;10.40;97.90
32534;DHT22;18973;48.580;8.912;2024-01-30T11:25:22;10.30;97.40
32534;DHT22;18973;48.580;8.912;2024-01-30T11:27:53;10.30;97.70
32534;DHT22;18973;48.580;8.912;2024-01-30T11:30:30;10.40;98.00
32534;DHT22;18973;48.580;8.912;2024-01-30T11:33:12;10.20;98.30
32534;DHT22;18973;48.580;8.912;2024-01-30T11:35:42;10.40;97.90
32534;DHT22;18973;48.580;8.912;2024-01-30T11:38:09;10.50;98.10
32534;DHT22;18973;48.580;8.912;2024-01-30T11:40:37;10.50;97.80
32534;DHT22;18973;48.580;8.912;2024-01-30T11:43:04;10.20;97.90
32534;DHT22;18973;48.580;8.912;2024-01-30T11:45:31;10.40;97.90
32534;DHT22;18973;48.580;8.912;2024-01-30T11:47:58;10.50;98.10
32534;DHT22;18973;48.580;8.912;2024-01-30T11:50:29;10.50;98.30
32534;DHT22;18973;48.580;8.912;2024-01-30T11:52:55;10.40;98.30
32534;DHT22;18973;48.580;8.912;2024-01-30T11:55:21;10.50;98.20
32534;DHT22;18973;48.580;8.912;2024-01-30T11:57:46;10.40;98.50
32534;DHT22;18973;48.580;8.912;2024-01-30T12:00:16;10.60;97.90
32534;DHT22;18973;48.580;8.912;2024-01-30T12:02:43;10.60;98.40
32534;DHT22;18973;48.580;8.912;2024-01-30T12:05:09;10.80;98.00
32534;DHT22;18973;48.580;8.912;2024-01-30T12:07:35;10.70;97.60
32534;DHT22;18973;48.580;8.912;2024-01-30T12:10:01;10.70;97.70
32534;DHT22;18973;48.580;8.912;2024-01-30T12:12:28;10.90;97.70
32534;DHT22;18973;48.580;8.912;2024-01-30T12:14:55;10.90;97.60
32534;DHT22;18973;48.580;8.912;2024-01-30T12:17:33;11.00;97.50
32534;DHT22;18973;48.580;8.912;2024-01-30T12:20:07;11.20;97.10
32534;DHT22;18973;48.580;8.912;2024-01-30T12:22:48;11.30;96.90
32534;DHT22;18973;48.580;8.912;2024-01-30T12:25:16;11.30;97.20
32534;DHT22;18973;48.580;8.912;2024-01-30T12:27:44;11.50;97.20
32534;DHT22;18973;48.580;8.912;2024-01-30T12:30:12;11.60;96.80
32534;DHT22;18973;48.580;8.912;2024-01-30T12:32:43;11.80;96.90
32534;DHT22;18973;48.580;8.912;2024-01-30T12:35:14;11.80;96.60
32534;DHT22;18973;48.580;8.912;2024-01-30T12:37:40;11.90;96.80
32534;DHT22;18973;48.580;8.912;2024-01-30T12:40:10;12.00;96.90
32534;DHT22;18973;48.580;8.912;2024-01-30T12:42:40;12.00;97.20
32534;DHT22;18973;48.580;8.912;2024-01-30T12:45:07;12.00;96.70
32534;DHT22;18973;48.580;8.912;2024-01-30T12:47:33;11.90;97.50
32534;DHT22;18973;48.580;8.912;2024-01-30T12:49:59;12.00;97.80
32534;DHT22;18973;48.580;8.912;2024-01-30T12:52:25;12.00;97.50
32534;DHT22;18973;48.580;8.912;2024-01-30T12:54:51;12.10;97.10
32534;DHT22;18973;48.580;8.912;2024-01-30T12:57:17;12.10;97.10
32534;DHT22;18973;48.580;8.912;2024-01-30T12:59:44;12.20;97.40
32534;DHT22;18973;48.580;8.912;2024-01-30T13:02:12;12.20;97.30
32534;DHT22;18973;48.580;8.912;2024-01-30T13:04:38;12.30;97.00
32534;DHT22;18973;48.580;8.912;2024-01-30T13:07:03;12.40;97.00
32534;DHT22;18973;48.580;8.912;2024-01-30T13:09:30;12.40;96.80
32534;DHT22;18973;48.580;8.912;2024-01-30T13:11:57;12.60;96.90
32534;DHT22;18973;48.580;8.912;2024-01-30T13:14:24;12.50;96.50
32534;DHT22;18973;48.580;8.912;2024-01-30T13:16:50;12.70;97.00
32534;DHT22;18973;48.580;8.912;2024-01-30T13:19:16;12.80;96.00
32534;DHT22;18973;48.580;8.912;2024-01-30T13:21:42;12.80;96.50
32534;DHT22;18973;48.580;8.912;2024-01-30T13:24:08;12.90;95.90
32534;DHT22;18973;48.580;8.912;2024-01-30T13:26:35;13.00;96.10
32534;DHT22;18973;48.580;8.912;2024-01-30T13:29:00;13.00;96.10
32534;DHT22;18973;48.580;8.912;2024-01-30T13:31:26;13.10;95.50
32534;DHT22;18973;48.580;8.912;2024-01-30T13:33:53;12.90;96.50
32534;DHT22;18973;48.580;8.912;2024-01-30T13:36:19;12.80;96.60
32534;DHT22;18973;48.580;8.912;2024-01-30T13:38:44;12.70;96.60
32534;DHT22;18973;48.580;8.912;2024-01-30T13:41:10;12.70;96.80
32534;DHT22;18973;48.580;8.912;2024-01-30T13:43:36;12.80;96.50
32534;DHT22;18973;48.580;8.912;2024-01-30T13:46:01;12.80;96.50
32534;DHT22;18973;48.580;8.912;2024-01-30T13:48:28;12.80;96.80
32534;DHT22;18973;48.580;8.912;2024-01-30T13:50:54;12.80;96.80
32534;DHT22;18973;48.580;8.912;2024-01-30T13:53:19;12.80;97.00
32534;DHT22;18973;48.580;8.912;2024-01-30T13:55:45;12.80;96.90
32534;DHT22;18973;48.580;8.912;2024-01-30T13:58:11;12.80;96.60
32534;DHT22;18973;48.580;8.912;2024-01-30T14:00:36;12.80;97.00
32534;DHT22;18973;48.580;8.912;2024-01-30T14:03:02;12.80;96.90
32534;DHT22;18973;48.580;8.912;2024-01-30T14:05:29;12.90;96.90
32534;DHT22;18973;48.580;8.912;2024-01-30T14:07:54;12.90;96.70
32534;DHT22;18973;48.580;8.912;2024-01-30T14:10:21;12.90;96.50
32534;DHT22;18973;48.580;8.912;2024-01-30T14:12:46;13.00;96.60
32534;DHT22;18973;48.580;8.912;2024-01-30T14:15:15;13.00;96.50
32534;DHT22;18973;48.580;8.912;2024-01-30T14:17:44;13.10;96.80
32534;DHT22;18973;48.580;8.912;2024-01-30T14:20:10;13.10;96.70
32534;DHT22;18973;48.580;8.912;2024-01-30T14:22:36;13.10;97.20
32534;DHT22;18973;48.580;8.912;2024-01-30T14:25:02;13.10;96.70
32534;DHT22;18973;48.580;8.912;2024-01-30T14:27:31;13.10;96.90
32534;DHT22;18973;48.580;8.912;2024-01-30T14:29:57;13.10;96.70
32534;DHT22;18973;48.580;8.912;2024-01-30T14:32:24;13.10;96.70
32534;DHT22;18973;48.580;8.912;2024-01-30T14:34:50;13.20;96.70
32534;DHT22;18973;48.580;8.912;2024-01-30T14:37:18;13.20;97.00
32534;DHT22;18973;48.580;8.912;2024-01-30T14:39:44;13.10;97.10
32534;DHT22;18973;48.580;8.912;2024-01-30T14:42:10;13.00;97.40
32534;DHT22;18973;48.580;8.912;2024-01-30T14:44:35;13.00;97.30
32534;DHT22;18973;48.580;8.912;2024-01-30T14:47:01;13.10;97.20
32534;DHT22;18973;48.580;8.912;2024-01-30T14:49:28;13.00;97.60
32534;DHT22;18973;48.580;8.912;2024-01-30T14:51:53;13.00;97.50
32534;DHT22;18973;48.580;8.912;2024-01-30T14:54:19;13.00;97.60
32534;DHT22;18973;48.580;8.912;2024-01-30T14:56:45;13.00;98.10
32534;DHT22;18973;48.580;8.912;2024-01-30T14:59:11;13.00;97.80
32534;DHT22;18973;48.580;8.912;2024-01-30T15:01:37;13.00;98.10
32534;DHT22;18973;48.580;8.912;2024-01-30T15:04:02;13.00;98.30
32534;DHT22;18973;48.580;8.912;2024-01-30T15:06:29;13.00;98.40
32534;DHT22;18973;48.580;8.912;2024-01-30T15:08:55;13.00;98.50
32534;DHT22;18973;48.580;8.912;2024-01-30T15:11:20;12.90;99.00
32534;DHT22;18973;48.580;8.912;2024-01-30T15:13:46;12.90;99.20
32534;DHT22;18973;48.580;8.912;2024-01-30T15:16:12;12.90;99.20
32534;DHT22;18973;48.580;8.912;2024-01-30T15:18:38;12.90;99.30
32534;DHT22;18973;48.580;8.912;2024-01-30T15:21:03;12.80;99.60
32534;DHT22;18973;48.580;8.912;2024-01-30T15:23:29;12.70;99.40
32534;DHT22;18973;48.580;8.912;2024-01-30T15:25:55;12.60;99.70
32534;DHT22;18973;48.580;8.912;2024-01-30T15:28:35;12.50;99.90
32534;DHT22;18973;48.580;8.912;2024-01-30T15:31:02;12.50;99.70
32534;DHT22;18973;48.580;8.912;2024-01-30T15:33:28;12.40;99.90
32534;DHT22;18973;48.580;8.912;2024-01-30T15:35:53;12.40;99.90
32534;DHT22;18973;48.580;8.912;2024-01-30T15:38:20;12.40;99.90